Terminal Aerodrome Forecast
Issued by NWS Charleston, WV

Current Version | Previous Version | Graphics & Text | Print | Product List | Glossary On
Versions: 1 2 3 4 5 6 7 8 9 10 11 12 13 14 15 16 17 18 19 20 21 22 23 24 25 26 27
000
FTUS41 KRLX 181100
TAFHTS
TAF
KHTS 181126Z 1812/1912 16005KT 2SM +SHRA BR SCT015 OVC030
     FM181500 24004KT 4SM +SHRA BR VCTS BKN020CB
     FM181900 25004KT 6SM +SHRA BR VCTS BKN020CB
     FM190000 VRB03KT 6SM BR VCTS BKN030CB
     FM190200 VRB03KT 5SM BR VCTS BKN025CB
     FM190600 VRB03KT 2SM BR BKN015=

USA.gov is the U.S. government's official web portal to all federal, state and local government web resources and services.